createdAt,value
2018-05-10T00:00:51.391Z,13.80
2018-05-10T00:03:19.152Z,13.80
2018-05-10T00:05:46.287Z,13.80
2018-05-10T00:08:13.388Z,13.80
2018-05-10T00:10:40.385Z,13.80
2018-05-10T00:13:07.378Z,13.80
2018-05-10T00:15:34.601Z,13.80
2018-05-10T00:18:02.368Z,13.80
2018-05-10T00:20:30.143Z,13.80
2018-05-10T00:22:57.113Z,13.80
2018-05-10T00:25:24.111Z,13.80
2018-05-10T00:27:51.190Z,13.80
2018-05-10T00:30:18.263Z,13.80
2018-05-10T00:32:45.263Z,13.70
2018-05-10T00:35:12.261Z,13.70
2018-05-10T00:37:39.254Z,13.70
2018-05-10T00:40:06.995Z,13.80
2018-05-10T00:42:34.003Z,13.80
2018-05-10T00:45:01.009Z,13.80
2018-05-10T00:47:28.026Z,13.80
2018-05-10T00:52:55.531Z,13.70
2018-05-10T00:55:22.553Z,13.70
2018-05-10T00:57:52.397Z,13.70
2018-05-10T01:00:19.361Z,13.80
2018-05-10T01:02:46.398Z,13.80
2018-05-10T01:05:13.411Z,13.80
2018-05-10T01:07:40.419Z,13.70
2018-05-10T01:10:07.428Z,13.70
2018-05-10T01:12:34.448Z,13.80
2018-05-10T01:15:01.432Z,13.70
2018-05-10T01:17:29.191Z,13.60
2018-05-10T01:19:56.184Z,13.60
2018-05-10T01:22:23.184Z,13.70
2018-05-10T01:24:50.156Z,13.70
2018-05-10T01:27:17.199Z,13.70
2018-05-10T01:29:44.914Z,13.70
2018-05-10T01:32:11.896Z,13.70
2018-05-10T01:34:40.233Z,13.80
2018-05-10T01:37:07.506Z,13.80
2018-05-10T01:39:34.499Z,13.70
2018-05-10T01:42:01.741Z,13.70
2018-05-10T01:44:28.726Z,13.70
2018-05-10T01:46:55.791Z,13.70
2018-05-10T01:49:23.669Z,13.80
2018-05-10T01:51:50.658Z,13.80
2018-05-10T01:54:17.661Z,13.80
2018-05-10T01:56:44.641Z,13.90
2018-05-10T01:59:11.643Z,13.90
2018-05-10T02:01:38.666Z,13.90
2018-05-10T02:04:05.783Z,13.90
2018-05-10T02:06:32.782Z,13.90
2018-05-10T02:08:59.743Z,13.90
2018-05-10T02:11:26.776Z,13.90
2018-05-10T02:13:53.750Z,13.90
2018-05-10T02:16:21.491Z,13.90
2018-05-10T02:18:48.483Z,13.90
2018-05-10T02:21:15.481Z,13.90
2018-05-10T02:23:42.496Z,13.90
2018-05-10T02:26:09.493Z,13.80
2018-05-10T02:28:36.471Z,13.80
2018-05-10T02:31:03.464Z,13.70
2018-05-10T02:33:30.461Z,13.70
2018-05-10T02:35:57.443Z,13.70
2018-05-10T02:38:24.419Z,13.70
2018-05-10T02:40:51.411Z,13.60
2018-05-10T02:43:18.434Z,13.70
2018-05-10T02:45:46.156Z,13.80
2018-05-10T02:48:13.203Z,13.80
2018-05-10T02:50:40.186Z,13.80
2018-05-10T02:53:07.911Z,13.70
2018-05-10T02:55:34.877Z,13.70
2018-05-10T02:58:01.961Z,13.80
2018-05-10T03:00:28.954Z,13.80
2018-05-10T03:02:55.926Z,13.80
2018-05-10T03:05:23.671Z,13.90
2018-05-10T03:07:50.654Z,13.90
2018-05-10T03:10:18.391Z,13.90
2018-05-10T03:12:45.386Z,13.90
2018-05-10T03:15:12.398Z,13.90
2018-05-10T03:17:40.158Z,13.90
2018-05-10T03:20:07.921Z,13.90
2018-05-10T03:22:34.923Z,13.90
2018-05-10T03:25:01.916Z,13.90
2018-05-10T03:27:28.946Z,13.90
2018-05-10T03:29:55.951Z,13.80
2018-05-10T03:32:22.946Z,13.70
2018-05-10T03:34:49.975Z,13.70
2018-05-10T03:37:17.003Z,13.70
2018-05-10T03:39:43.993Z,13.70
2018-05-10T03:42:11.004Z,13.80
2018-05-10T03:44:38.079Z,13.80
2018-05-10T03:47:05.183Z,13.90
2018-05-10T03:49:32.356Z,13.80
2018-05-10T03:51:59.359Z,13.70
2018-05-10T03:54:27.099Z,13.80
2018-05-10T03:56:54.067Z,13.90
2018-05-10T03:59:21.791Z,13.80
2018-05-10T04:01:48.761Z,13.80
2018-05-10T04:04:34.581Z,13.90
2018-05-10T04:07:20.572Z,13.90
2018-05-10T04:10:05.739Z,13.90
2018-05-10T04:12:32.940Z,14.00
2018-05-10T04:14:59.929Z,13.90
2018-05-10T04:17:27.644Z,13.80
2018-05-10T04:19:54.641Z,13.80
2018-05-10T04:22:22.370Z,13.60
2018-05-10T04:24:49.384Z,13.70
2018-05-10T04:27:16.354Z,13.60
2018-05-10T04:29:43.361Z,13.70
2018-05-10T04:32:10.332Z,13.70
2018-05-10T04:34:37.451Z,13.60
2018-05-10T04:37:04.459Z,13.60
2018-05-10T04:39:32.211Z,13.60
2018-05-10T04:41:59.214Z,13.60
2018-05-10T04:44:26.292Z,13.60
2018-05-10T04:46:53.372Z,13.60
2018-05-10T04:49:20.351Z,13.60
2018-05-10T04:51:47.384Z,13.70
2018-05-10T04:54:14.434Z,13.70
2018-05-10T04:56:41.487Z,13.80
2018-05-10T04:59:08.468Z,13.80
2018-05-10T05:01:35.455Z,13.80
2018-05-10T05:04:02.411Z,13.80
2018-05-10T05:06:30.129Z,13.80
2018-05-10T05:08:57.156Z,13.80
2018-05-10T05:11:24.159Z,13.80
2018-05-10T05:13:51.164Z,13.80
2018-05-10T05:16:18.143Z,13.90
2018-05-10T05:18:45.140Z,13.90
2018-05-10T05:21:12.137Z,13.90
2018-05-10T05:23:39.903Z,14.00
2018-05-10T05:26:06.901Z,14.00
2018-05-10T05:28:33.903Z,14.00
2018-05-10T05:31:00.981Z,14.00
2018-05-10T05:33:27.949Z,14.10
2018-05-10T05:35:54.956Z,14.10
2018-05-10T05:38:22.711Z,14.10
2018-05-10T05:40:50.463Z,14.10
2018-05-10T05:43:17.481Z,14.10
2018-05-10T05:45:44.459Z,14.10
2018-05-10T05:48:11.738Z,14.10
2018-05-10T05:50:38.761Z,14.20
2018-05-10T05:53:05.752Z,14.20
2018-05-10T05:55:32.786Z,14.10
2018-05-10T05:57:59.804Z,14.20
2018-05-10T06:00:26.831Z,14.30
2018-05-10T06:02:53.864Z,14.30
2018-05-10T06:05:20.863Z,14.30
2018-05-10T06:07:48.623Z,14.50
2018-05-10T06:10:16.371Z,14.60
2018-05-10T06:12:43.383Z,14.70
2018-05-10T06:15:10.366Z,14.70
2018-05-10T06:17:37.386Z,14.90
2018-05-10T06:20:04.546Z,15.00
2018-05-10T06:22:31.536Z,15.10
2018-05-10T06:24:58.572Z,15.10
2018-05-10T06:27:25.542Z,15.20
2018-05-10T06:29:52.529Z,15.30
2018-05-10T06:32:20.091Z,15.40
2018-05-10T06:34:47.241Z,15.50
2018-05-10T06:37:14.249Z,15.60
2018-05-10T06:39:41.231Z,15.70
2018-05-10T06:42:08.221Z,15.70
2018-05-10T06:44:35.221Z,15.70
2018-05-10T06:47:02.231Z,15.80
2018-05-10T06:49:29.257Z,15.90
2018-05-10T06:51:57.009Z,16.00
2018-05-10T06:54:24.034Z,15.90
2018-05-10T06:56:51.114Z,15.90
2018-05-10T06:59:18.829Z,15.90
2018-05-10T07:01:45.842Z,15.90
2018-05-10T07:04:12.834Z,15.90
2018-05-10T07:06:39.869Z,15.80
2018-05-10T07:09:07.003Z,15.90
2018-05-10T07:11:33.989Z,16.10
2018-05-10T07:14:00.983Z,16.20
2018-05-10T07:16:27.980Z,16.30
2018-05-10T07:18:54.955Z,16.50
2018-05-10T07:21:22.742Z,16.50
2018-05-10T07:23:49.771Z,16.50
2018-05-10T07:26:17.529Z,16.70
2018-05-10T07:28:45.262Z,16.40
2018-05-10T07:31:12.245Z,16.40
2018-05-10T07:33:39.999Z,16.80
2018-05-10T07:36:07.039Z,16.80
2018-05-10T07:38:34.045Z,16.80
2018-05-10T07:41:01.064Z,16.90
2018-05-10T07:43:28.070Z,16.80
2018-05-10T07:45:55.047Z,17.00
2018-05-10T07:48:22.851Z,17.10
2018-05-10T07:50:49.868Z,17.20
2018-05-10T07:53:16.876Z,17.20
2018-05-10T07:55:44.702Z,17.20
2018-05-10T07:58:11.712Z,17.20
2018-05-10T08:00:39.429Z,17.40
2018-05-10T08:03:06.459Z,17.40
2018-05-10T08:05:33.451Z,17.50
2018-05-10T08:08:00.470Z,17.70
2018-05-10T08:10:27.455Z,17.90
2018-05-10T08:12:54.459Z,18.10
2018-05-10T08:15:21.455Z,18.00
2018-05-10T08:17:48.605Z,18.10
2018-05-10T08:20:16.374Z,18.80
2018-05-10T08:22:44.135Z,18.90
2018-05-10T08:25:11.161Z,18.90
2018-05-10T08:27:46.187Z,19.50
2018-05-10T08:30:13.255Z,20.20
2018-05-10T08:32:41.937Z,20.50
2018-05-10T08:35:09.030Z,20.60
2018-05-10T08:37:36.007Z,20.80
2018-05-10T08:40:03.193Z,20.90
2018-05-10T08:42:30.172Z,21.10
2018-05-10T08:44:57.213Z,21.30
2018-05-10T08:47:24.209Z,21.30
2018-05-10T08:49:52.010Z,21.50
2018-05-10T08:52:19.012Z,21.50
2018-05-10T08:54:46.052Z,21.70
2018-05-10T08:57:13.101Z,21.80
2018-05-10T08:59:40.126Z,22.20
2018-05-10T09:02:07.631Z,22.00
2018-05-10T09:04:34.694Z,22.30
2018-05-10T09:07:01.679Z,22.50
2018-05-10T09:09:28.694Z,22.70
2018-05-10T09:11:55.659Z,23.20
2018-05-10T09:14:23.419Z,23.50
2018-05-10T09:16:51.166Z,23.50
2018-05-10T09:19:18.650Z,23.40
2018-05-10T09:21:45.634Z,23.40
2018-05-10T09:24:12.659Z,23.40
2018-05-10T09:26:39.644Z,23.60
2018-05-10T09:29:06.624Z,23.20
2018-05-10T09:31:34.418Z,23.40
2018-05-10T09:34:01.427Z,23.50
2018-05-10T09:36:28.449Z,23.10
2018-05-10T09:38:55.454Z,23.20
2018-05-10T09:41:22.427Z,23.80
2018-05-10T09:43:49.446Z,23.80
2018-05-10T09:46:16.550Z,24.10
2018-05-10T09:48:43.510Z,23.80
2018-05-10T09:51:11.294Z,25.30
2018-05-10T09:53:38.382Z,25.30
2018-05-10T09:56:05.374Z,25.30
2018-05-10T09:58:33.202Z,25.20
2018-05-10T10:01:00.252Z,25.20
2018-05-10T10:03:27.276Z,25.40
2018-05-10T10:05:54.269Z,25.30
2018-05-10T10:08:21.307Z,25.40
2018-05-10T10:10:48.466Z,25.50
2018-05-10T10:13:15.534Z,25.60
2018-05-10T10:15:42.612Z,25.30
2018-05-10T10:18:09.689Z,25.80
2018-05-10T10:20:36.742Z,26.10
2018-05-10T10:23:03.811Z,25.90
2018-05-10T10:25:30.869Z,26.20
2018-05-10T10:27:58.005Z,26.60
2018-05-10T10:30:25.042Z,27.00
2018-05-10T10:32:52.149Z,27.00
2018-05-10T10:35:19.236Z,27.10
2018-05-10T10:37:46.281Z,27.40
2018-05-10T10:40:13.290Z,27.20
2018-05-10T10:42:40.298Z,27.60
2018-05-10T10:45:07.342Z,27.30
2018-05-10T10:47:34.359Z,26.20
2018-05-10T10:50:01.360Z,25.60
2018-05-10T10:52:28.352Z,25.20
2018-05-10T10:54:55.374Z,25.50
2018-05-10T10:57:22.401Z,25.80
2018-05-10T10:59:49.445Z,25.40
2018-05-10T11:02:16.466Z,25.00
2018-05-10T11:04:43.516Z,25.20
2018-05-10T11:07:10.491Z,25.80
2018-05-10T11:09:37.504Z,26.70
2018-05-10T11:12:04.545Z,26.70
2018-05-10T11:14:31.568Z,26.10
2018-05-10T11:16:58.594Z,25.80
2018-05-10T11:19:25.671Z,26.50
2018-05-10T11:21:52.701Z,27.50
2018-05-10T11:24:19.699Z,26.70
2018-05-10T11:26:46.676Z,26.20
2018-05-10T11:29:13.699Z,25.70
2018-05-10T11:31:41.434Z,26.50
2018-05-10T11:34:08.426Z,26.50
2018-05-10T11:36:35.452Z,27.10
2018-05-10T11:39:03.510Z,27.10
2018-05-10T11:41:30.481Z,27.10
2018-05-10T11:43:58.250Z,26.50
2018-05-10T11:46:25.249Z,26.50
2018-05-10T11:48:52.284Z,25.60
2018-05-10T11:51:20.045Z,24.70
2018-05-10T11:53:47.068Z,24.70
2018-05-10T11:56:14.097Z,24.40
2018-05-10T11:58:41.893Z,23.50
2018-05-10T12:01:08.952Z,23.50
2018-05-10T12:03:35.967Z,23.30
2018-05-10T12:06:03.048Z,22.90
2018-05-10T12:08:30.104Z,22.80
2018-05-10T12:10:57.123Z,22.60
2018-05-10T12:13:24.159Z,22.80
2018-05-10T12:15:51.949Z,22.60
2018-05-10T12:18:19.017Z,22.60
2018-05-10T12:20:46.035Z,22.20
2018-05-10T12:23:13.090Z,21.80
2018-05-10T12:25:40.582Z,21.30
2018-05-10T12:28:07.519Z,20.80
2018-05-10T12:30:34.569Z,20.50
2018-05-10T12:33:01.573Z,20.10
2018-05-10T12:35:28.587Z,19.90
2018-05-10T12:37:56.334Z,19.70
2018-05-10T12:40:24.117Z,19.80
2018-05-10T12:42:51.152Z,19.80
2018-05-10T12:45:18.194Z,19.80
2018-05-10T12:47:45.217Z,19.80
2018-05-10T12:50:12.226Z,19.70
2018-05-10T12:52:39.987Z,19.30
2018-05-10T12:55:07.012Z,19.30
2018-05-10T12:57:34.074Z,19.20
2018-05-10T13:00:02.012Z,19.00
2018-05-10T13:02:29.060Z,18.90
2018-05-10T13:04:56.087Z,18.80
2018-05-10T13:07:23.428Z,18.70
2018-05-10T13:09:50.469Z,18.60
2018-05-10T13:12:17.564Z,18.60
2018-05-10T13:14:44.599Z,18.60
2018-05-10T13:17:11.867Z,18.50
2018-05-10T13:19:38.910Z,18.50
2018-05-10T13:22:05.930Z,18.50
2018-05-10T13:24:33.687Z,18.30
2018-05-10T13:27:00.684Z,18.30
2018-05-10T13:29:28.478Z,18.20
2018-05-10T13:31:56.209Z,17.90
2018-05-10T13:34:23.192Z,17.90
2018-05-10T13:36:50.212Z,17.90
2018-05-10T13:39:17.972Z,17.50
2018-05-10T13:41:44.999Z,17.50
2018-05-10T13:44:12.065Z,17.50
2018-05-10T13:46:39.179Z,17.40
2018-05-10T13:49:06.221Z,17.40
2018-05-10T13:51:33.279Z,17.40
2018-05-10T13:54:00.305Z,17.30
2018-05-10T13:56:27.409Z,17.30
2018-05-10T13:58:54.552Z,17.40
2018-05-10T14:01:22.327Z,17.40
2018-05-10T14:03:49.329Z,17.40
2018-05-10T14:06:16.341Z,17.50
2018-05-10T14:08:44.890Z,17.70
2018-05-10T14:11:11.987Z,17.70
2018-05-10T14:13:42.426Z,18.00
2018-05-10T14:16:09.907Z,18.00
2018-05-10T14:18:37.512Z,18.20
2018-05-10T14:21:05.143Z,18.30
2018-05-10T14:23:32.945Z,18.20
2018-05-10T14:26:00.368Z,18.30
2018-05-10T14:28:27.712Z,18.50
2018-05-10T14:30:55.007Z,18.50
2018-05-10T14:33:25.209Z,18.50
2018-05-10T14:35:53.364Z,18.60
2018-05-10T14:38:21.433Z,18.40
2018-05-10T14:40:48.792Z,18.40
2018-05-10T14:43:17.048Z,18.40
2018-05-10T14:45:44.389Z,18.60
2018-05-10T14:48:11.564Z,18.70
2018-05-10T14:50:38.707Z,18.70
2018-05-10T14:53:05.772Z,18.60
2018-05-10T14:55:32.846Z,18.50
2018-05-10T14:58:00.711Z,18.30
2018-05-10T15:00:28.723Z,18.30
2018-05-10T15:02:56.808Z,18.30
2018-05-10T15:05:23.924Z,18.30
2018-05-10T15:07:51.247Z,18.40
2018-05-10T15:10:19.377Z,18.50
2018-05-10T15:12:46.441Z,18.50
2018-05-10T15:15:13.499Z,18.60
2018-05-10T15:17:40.594Z,19.00
2018-05-10T15:20:08.728Z,19.80
2018-05-10T15:22:35.884Z,19.80
2018-05-10T15:25:03.235Z,20.10
2018-05-10T15:27:30.350Z,20.40
2018-05-10T15:29:57.430Z,20.50
2018-05-10T15:32:24.526Z,20.40
2018-05-10T15:34:52.352Z,21.50
2018-05-10T15:37:19.452Z,21.50
2018-05-10T15:39:46.494Z,21.80
2018-05-10T15:42:13.571Z,22.00
2018-05-10T15:44:40.634Z,21.50
2018-05-10T15:47:07.718Z,21.00
2018-05-10T15:49:34.739Z,20.80
2018-05-10T15:52:01.778Z,21.20
2018-05-10T15:54:28.844Z,21.60
2018-05-10T15:56:55.889Z,21.80
2018-05-10T15:59:22.884Z,21.60
2018-05-10T16:01:50.005Z,21.60
2018-05-10T16:04:17.039Z,21.10
2018-05-10T16:06:44.237Z,20.70
2018-05-10T16:09:11.204Z,20.40
2018-05-10T16:11:38.207Z,20.20
2018-05-10T16:14:05.974Z,19.80
2018-05-10T16:16:33.059Z,19.80
2018-05-10T16:19:00.041Z,19.70
2018-05-10T16:21:27.082Z,19.70
2018-05-10T16:23:54.114Z,19.70
2018-05-10T16:26:21.195Z,19.80
2018-05-10T16:28:48.317Z,19.80
2018-05-10T16:31:15.329Z,19.80
2018-05-10T16:33:42.302Z,19.70
2018-05-10T16:36:09.342Z,20.00
2018-05-10T16:38:36.854Z,20.50
2018-05-10T16:41:04.052Z,21.10
2018-05-10T16:43:31.190Z,21.60
2018-05-10T16:45:58.249Z,21.90
2018-05-10T16:48:25.273Z,21.80
2018-05-10T16:50:52.351Z,21.40
2018-05-10T16:53:19.451Z,20.80
2018-05-10T16:55:46.514Z,20.50
2018-05-10T16:58:13.558Z,20.20
2018-05-10T17:00:40.647Z,20.00
2018-05-10T17:03:07.712Z,19.80
2018-05-10T17:05:34.797Z,19.80
2018-05-10T17:08:01.953Z,19.70
2018-05-10T17:10:29.195Z,19.60
2018-05-10T17:12:56.312Z,19.50
2018-05-10T17:15:23.414Z,19.30
2018-05-10T17:17:50.497Z,19.20
2018-05-10T17:20:17.605Z,19.10
2018-05-10T17:22:44.914Z,18.90
2018-05-10T17:25:11.977Z,18.80
2018-05-10T17:27:39.051Z,18.70
2018-05-10T17:30:06.129Z,18.60
2018-05-10T17:32:33.213Z,18.50
2018-05-10T17:35:00.276Z,18.40
2018-05-10T17:37:28.119Z,18.40
2018-05-10T17:39:55.194Z,18.40
2018-05-10T17:42:23.389Z,18.60
2018-05-10T17:44:50.511Z,18.60
2018-05-10T17:47:18.341Z,18.80
2018-05-10T17:49:45.364Z,18.80
2018-05-10T17:52:13.181Z,18.80
2018-05-10T17:54:40.218Z,18.80
2018-05-10T17:57:07.328Z,18.80
2018-05-10T17:59:34.386Z,18.70
2018-05-10T18:02:02.191Z,18.60
2018-05-10T18:04:29.326Z,18.40
2018-05-10T18:06:56.381Z,18.30
2018-05-10T18:09:23.476Z,18.10
2018-05-10T18:11:51.385Z,17.80
2018-05-10T18:14:18.446Z,17.80
2018-05-10T18:16:45.454Z,17.70
2018-05-10T18:19:12.491Z,17.60
2018-05-10T18:21:39.504Z,17.50
2018-05-10T18:24:06.502Z,17.40
2018-05-10T18:26:33.501Z,17.40
2018-05-10T18:29:00.568Z,17.20
2018-05-10T18:31:27.609Z,17.10
2018-05-10T18:33:55.356Z,17.10
2018-05-10T18:36:22.409Z,17.10
2018-05-10T18:38:49.442Z,17.00
2018-05-10T18:41:16.519Z,17.00
2018-05-10T18:43:44.347Z,16.90
2018-05-10T18:46:11.384Z,17.00
2018-05-10T18:48:38.406Z,16.90
2018-05-10T18:51:05.407Z,17.20
2018-05-10T18:53:32.397Z,17.20
2018-05-10T18:55:59.441Z,17.20
2018-05-10T18:58:26.442Z,17.10
2018-05-10T19:00:53.469Z,16.90
2018-05-10T19:03:20.493Z,16.70
2018-05-10T19:05:47.514Z,16.50
2018-05-10T19:08:15.289Z,16.30
2018-05-10T19:10:42.339Z,16.30
2018-05-10T19:13:09.399Z,16.10
2018-05-10T19:15:36.411Z,16.10
2018-05-10T19:18:05.211Z,16.20
2018-05-10T19:20:33.047Z,16.10
2018-05-10T19:23:00.190Z,16.10
2018-05-10T19:25:27.947Z,16.00
2018-05-10T19:27:55.167Z,15.90
2018-05-10T19:30:23.069Z,15.80
2018-05-10T19:32:50.109Z,15.80
2018-05-10T19:35:17.222Z,15.80
2018-05-10T19:37:44.324Z,15.80
2018-05-10T19:40:12.231Z,15.80
2018-05-10T19:42:39.329Z,15.80
2018-05-10T19:45:06.473Z,15.70
2018-05-10T19:47:33.587Z,15.70
2018-05-10T19:50:01.431Z,15.70
2018-05-10T19:52:29.387Z,15.70
2018-05-10T19:54:57.290Z,15.90
2018-05-10T19:57:24.387Z,15.90
2018-05-10T19:59:51.512Z,16.00
2018-05-10T20:02:18.639Z,16.00
2018-05-10T20:04:45.834Z,15.80
2018-05-10T20:07:13.044Z,15.50
2018-05-10T20:09:40.148Z,15.30
2018-05-10T20:12:07.337Z,15.40
2018-05-10T20:14:34.419Z,15.30
2018-05-10T20:17:02.536Z,15.20
2018-05-10T20:19:30.422Z,14.90
2018-05-10T20:21:57.651Z,14.90
2018-05-10T20:24:25.509Z,14.80
2018-05-10T20:26:53.404Z,14.70
2018-05-10T20:29:20.492Z,14.70
2018-05-10T20:31:47.534Z,14.70
2018-05-10T20:34:14.554Z,14.60
2018-05-10T20:36:41.622Z,14.60
2018-05-10T20:39:08.746Z,14.50
2018-05-10T20:41:35.931Z,14.40
2018-05-10T20:44:03.137Z,14.40
2018-05-10T20:46:30.934Z,14.40
2018-05-10T20:48:57.987Z,14.40
2018-05-10T20:51:24.992Z,14.40
2018-05-10T20:53:52.765Z,14.30
2018-05-10T20:56:20.554Z,14.30
2018-05-10T20:58:47.589Z,14.30
2018-05-10T21:01:14.619Z,14.30
2018-05-10T21:03:42.502Z,14.20
2018-05-10T21:06:10.036Z,14.20
2018-05-10T21:08:37.833Z,14.00
2018-05-10T21:11:04.899Z,14.00
2018-05-10T21:13:31.984Z,14.00
2018-05-10T21:15:59.085Z,14.10
2018-05-10T21:18:26.137Z,14.00
2018-05-10T21:20:53.166Z,14.00
2018-05-10T21:23:20.206Z,13.90
2018-05-10T21:25:47.269Z,13.90
2018-05-10T21:28:14.311Z,13.90
2018-05-10T21:30:41.714Z,13.90
2018-05-10T21:33:08.781Z,13.80
2018-05-10T21:35:36.681Z,13.80
2018-05-10T21:38:03.874Z,13.80
2018-05-10T21:40:30.969Z,13.70
2018-05-10T21:42:58.140Z,13.70
2018-05-10T21:45:25.849Z,14.00
2018-05-10T21:47:52.836Z,14.00
2018-05-10T21:50:20.032Z,14.10
2018-05-10T21:52:47.042Z,14.00
2018-05-10T21:55:14.201Z,13.90
2018-05-10T21:57:41.211Z,13.90
2018-05-10T22:00:08.266Z,13.70
2018-05-10T22:02:35.343Z,13.70
2018-05-10T22:05:02.383Z,13.70
2018-05-10T22:07:29.411Z,13.60
2018-05-10T22:09:57.285Z,13.60
2018-05-10T22:12:24.274Z,13.60
2018-05-10T22:14:51.343Z,13.60
2018-05-10T22:17:18.419Z,13.50
2018-05-10T22:19:45.421Z,13.90
2018-05-10T22:22:12.469Z,13.80
2018-05-10T22:24:39.466Z,13.70
2018-05-10T22:27:07.201Z,13.30
2018-05-10T22:29:34.206Z,13.30
2018-05-10T22:32:01.240Z,13.50
2018-05-10T22:34:28.244Z,13.40
2018-05-10T22:36:55.261Z,13.40
2018-05-10T22:39:22.308Z,13.30
2018-05-10T22:41:49.426Z,13.30
2018-05-10T22:44:16.635Z,13.20
2018-05-10T22:46:43.569Z,13.10
2018-05-10T22:49:10.581Z,13.20
2018-05-10T22:51:37.589Z,13.30
2018-05-10T22:54:05.373Z,13.60
2018-05-10T22:56:32.414Z,13.60
2018-05-10T22:59:00.203Z,13.50
2018-05-10T23:01:27.306Z,13.50
2018-05-10T23:03:55.086Z,13.20
2018-05-10T23:06:22.921Z,13.20
2018-05-10T23:08:49.951Z,13.20
2018-05-10T23:11:17.006Z,13.10
2018-05-10T23:13:44.046Z,13.10
2018-05-10T23:16:11.271Z,13.10
2018-05-10T23:18:38.403Z,13.00
2018-05-10T23:21:06.141Z,13.00
2018-05-10T23:23:33.218Z,13.00
2018-05-10T23:26:01.044Z,12.90
2018-05-10T23:28:28.180Z,12.90
2018-05-10T23:30:55.169Z,12.90
2018-05-10T23:33:23.474Z,12.70
2018-05-10T23:35:50.496Z,12.70
2018-05-10T23:38:18.255Z,12.70
2018-05-10T23:40:45.991Z,12.70
2018-05-10T23:43:12.986Z,12.70
2018-05-10T23:45:39.999Z,12.70
2018-05-10T23:48:07.031Z,12.60
2018-05-10T23:50:35.674Z,12.50
2018-05-10T23:53:02.664Z,12.60
2018-05-10T23:55:29.696Z,12.50
2018-05-10T23:57:56.691Z,12.40
